sensor_id;sensor_type;location;lat;lon;timestamp;P1;durP1;ratioP1;P2;durP2;ratioP2
43883;SDS011;29544;52.018;5.810;2023-03-23T00:01:17;3.33;;;1.27;;
43883;SDS011;29544;52.018;5.810;2023-03-23T00:03:45;2.17;;;1.27;;
43883;SDS011;29544;52.018;5.810;2023-03-23T00:06:12;2.25;;;1.00;;
43883;SDS011;29544;52.018;5.810;2023-03-23T00:08:42;2.38;;;0.98;;
43883;SDS011;29544;52.018;5.810;2023-03-23T00:11:13;2.30;;;1.00;;
43883;SDS011;29544;52.018;5.810;2023-03-23T00:13:41;6.22;;;1.63;;
43883;SDS011;29544;52.018;5.810;2023-03-23T00:16:08;1.98;;;1.05;;
43883;SDS011;29544;52.018;5.810;2023-03-23T00:18:48;3.42;;;1.13;;
43883;SDS011;29544;52.018;5.810;2023-03-23T00:21:17;4.28;;;1.60;;
43883;SDS011;29544;52.018;5.810;2023-03-23T00:23:43;3.97;;;1.05;;
43883;SDS011;29544;52.018;5.810;2023-03-23T00:26:10;2.20;;;1.10;;
43883;SDS011;29544;52.018;5.810;2023-03-23T00:31:04;2.78;;;1.00;;
43883;SDS011;29544;52.018;5.810;2023-03-23T00:33:33;1.35;;;1.05;;
43883;SDS011;29544;52.018;5.810;2023-03-23T00:36:12;2.08;;;1.13;;
43883;SDS011;29544;52.018;5.810;2023-03-23T00:38:38;2.70;;;1.25;;
43883;SDS011;29544;52.018;5.810;2023-03-23T00:41:06;3.25;;;1.05;;
43883;SDS011;29544;52.018;5.810;2023-03-23T00:43:32;1.90;;;1.10;;
43883;SDS011;29544;52.018;5.810;2023-03-23T00:46:01;2.60;;;1.10;;
43883;SDS011;29544;52.018;5.810;2023-03-23T00:48:33;1.92;;;1.00;;
43883;SDS011;29544;52.018;5.810;2023-03-23T00:51:00;2.10;;;1.20;;
43883;SDS011;29544;52.018;5.810;2023-03-23T00:53:30;2.58;;;1.20;;
43883;SDS011;29544;52.018;5.810;2023-03-23T00:55:57;2.67;;;1.10;;
43883;SDS011;29544;52.018;5.810;2023-03-23T00:58:22;2.03;;;0.90;;
43883;SDS011;29544;52.018;5.810;2023-03-23T01:00:48;2.53;;;1.10;;
43883;SDS011;29544;52.018;5.810;2023-03-23T01:03:13;3.03;;;1.10;;
43883;SDS011;29544;52.018;5.810;2023-03-23T01:05:43;2.45;;;1.10;;
43883;SDS011;29544;52.018;5.810;2023-03-23T01:08:12;2.65;;;0.90;;
43883;SDS011;29544;52.018;5.810;2023-03-23T01:10:38;2.92;;;1.20;;
43883;SDS011;29544;52.018;5.810;2023-03-23T01:13:04;2.38;;;1.10;;
43883;SDS011;29544;52.018;5.810;2023-03-23T01:15:31;1.75;;;1.20;;
43883;SDS011;29544;52.018;5.810;2023-03-23T01:17:57;2.47;;;0.90;;
43883;SDS011;29544;52.018;5.810;2023-03-23T01:20:23;3.10;;;1.20;;
43883;SDS011;29544;52.018;5.810;2023-03-23T01:22:51;2.85;;;0.95;;
43883;SDS011;29544;52.018;5.810;2023-03-23T01:25:17;2.85;;;1.23;;
43883;SDS011;29544;52.018;5.810;2023-03-23T01:27:43;1.33;;;0.90;;
43883;SDS011;29544;52.018;5.810;2023-03-23T01:30:10;1.80;;;0.80;;
43883;SDS011;29544;52.018;5.810;2023-03-23T01:32:37;2.03;;;1.35;;
43883;SDS011;29544;52.018;5.810;2023-03-23T01:35:03;3.75;;;1.30;;
43883;SDS011;29544;52.018;5.810;2023-03-23T01:37:29;1.67;;;1.17;;
43883;SDS011;29544;52.018;5.810;2023-03-23T01:42:22;1.40;;;0.88;;
43883;SDS011;29544;52.018;5.810;2023-03-23T01:47:14;2.57;;;0.87;;
43883;SDS011;29544;52.018;5.810;2023-03-23T01:49:42;1.80;;;1.10;;
43883;SDS011;29544;52.018;5.810;2023-03-23T01:52:14;3.55;;;1.20;;
43883;SDS011;29544;52.018;5.810;2023-03-23T01:54:46;2.13;;;1.30;;
43883;SDS011;29544;52.018;5.810;2023-03-23T01:57:14;3.58;;;1.10;;
43883;SDS011;29544;52.018;5.810;2023-03-23T01:59:42;1.80;;;1.05;;
43883;SDS011;29544;52.018;5.810;2023-03-23T02:02:10;1.95;;;0.90;;
43883;SDS011;29544;52.018;5.810;2023-03-23T02:04:37;2.38;;;1.17;;
43883;SDS011;29544;52.018;5.810;2023-03-23T02:07:04;2.53;;;0.98;;
43883;SDS011;29544;52.018;5.810;2023-03-23T02:09:29;3.80;;;1.30;;
43883;SDS011;29544;52.018;5.810;2023-03-23T02:11:55;2.53;;;1.17;;
43883;SDS011;29544;52.018;5.810;2023-03-23T02:14:22;2.47;;;1.00;;
43883;SDS011;29544;52.018;5.810;2023-03-23T02:16:58;2.38;;;1.30;;
43883;SDS011;29544;52.018;5.810;2023-03-23T02:25:33;1.98;;;0.93;;
43883;SDS011;29544;52.018;5.810;2023-03-23T02:28:24;2.38;;;1.10;;
43883;SDS011;29544;52.018;5.810;2023-03-23T02:31:34;2.38;;;0.80;;
43883;SDS011;29544;52.018;5.810;2023-03-23T02:37:13;1.60;;;1.15;;
43883;SDS011;29544;52.018;5.810;2023-03-23T02:39:48;2.83;;;1.35;;
43883;SDS011;29544;52.018;5.810;2023-03-23T02:42:20;2.08;;;1.05;;
43883;SDS011;29544;52.018;5.810;2023-03-23T02:44:49;2.08;;;0.85;;
43883;SDS011;29544;52.018;5.810;2023-03-23T02:47:20;2.28;;;1.15;;
43883;SDS011;29544;52.018;5.810;2023-03-23T02:49:51;2.58;;;1.10;;
43883;SDS011;29544;52.018;5.810;2023-03-23T02:52:21;1.83;;;1.00;;
43883;SDS011;29544;52.018;5.810;2023-03-23T02:54:50;2.03;;;1.10;;
43883;SDS011;29544;52.018;5.810;2023-03-23T02:57:17;2.80;;;0.90;;
43883;SDS011;29544;52.018;5.810;2023-03-23T02:59:43;2.60;;;1.10;;
43883;SDS011;29544;52.018;5.810;2023-03-23T03:02:12;1.98;;;1.10;;
43883;SDS011;29544;52.018;5.810;2023-03-23T03:04:44;2.33;;;1.20;;
43883;SDS011;29544;52.018;5.810;2023-03-23T03:07:35;2.83;;;1.17;;
43883;SDS011;29544;52.018;5.810;2023-03-23T03:10:22;3.47;;;1.55;;
43883;SDS011;29544;52.018;5.810;2023-03-23T03:18:16;2.25;;;0.98;;
43883;SDS011;29544;52.018;5.810;2023-03-23T03:20:51;2.47;;;1.13;;
43883;SDS011;29544;52.018;5.810;2023-03-23T03:23:24;1.58;;;1.00;;
43883;SDS011;29544;52.018;5.810;2023-03-23T03:25:52;2.05;;;1.00;;
43883;SDS011;29544;52.018;5.810;2023-03-23T03:28:22;1.75;;;0.90;;
43883;SDS011;29544;52.018;5.810;2023-03-23T03:30:49;1.75;;;1.02;;
43883;SDS011;29544;52.018;5.810;2023-03-23T03:33:19;2.03;;;0.90;;
43883;SDS011;29544;52.018;5.810;2023-03-23T03:35:50;1.58;;;0.90;;
43883;SDS011;29544;52.018;5.810;2023-03-23T03:38:17;2.22;;;1.23;;
43883;SDS011;29544;52.018;5.810;2023-03-23T03:40:42;2.23;;;1.10;;
43883;SDS011;29544;52.018;5.810;2023-03-23T03:43:08;1.33;;;0.83;;
43883;SDS011;29544;52.018;5.810;2023-03-23T03:45:33;2.33;;;1.10;;
43883;SDS011;29544;52.018;5.810;2023-03-23T03:47:59;1.93;;;1.00;;
43883;SDS011;29544;52.018;5.810;2023-03-23T03:50:26;1.95;;;1.00;;
43883;SDS011;29544;52.018;5.810;2023-03-23T03:52:52;1.85;;;1.20;;
43883;SDS011;29544;52.018;5.810;2023-03-23T03:55:17;3.63;;;1.10;;
43883;SDS011;29544;52.018;5.810;2023-03-23T03:57:43;2.17;;;1.20;;
43883;SDS011;29544;52.018;5.810;2023-03-23T04:00:09;2.10;;;1.00;;
43883;SDS011;29544;52.018;5.810;2023-03-23T04:02:39;1.75;;;1.10;;
43883;SDS011;29544;52.018;5.810;2023-03-23T04:05:15;1.98;;;1.00;;
43883;SDS011;29544;52.018;5.810;2023-03-23T04:07:41;1.80;;;1.03;;
43883;SDS011;29544;52.018;5.810;2023-03-23T04:10:07;4.35;;;1.35;;
43883;SDS011;29544;52.018;5.810;2023-03-23T04:12:35;2.42;;;0.93;;
43883;SDS011;29544;52.018;5.810;2023-03-23T04:15:01;2.85;;;1.20;;
43883;SDS011;29544;52.018;5.810;2023-03-23T04:17:26;3.53;;;1.20;;
43883;SDS011;29544;52.018;5.810;2023-03-23T04:19:53;2.37;;;1.10;;
43883;SDS011;29544;52.018;5.810;2023-03-23T04:22:21;3.20;;;1.20;;
43883;SDS011;29544;52.018;5.810;2023-03-23T04:24:55;1.85;;;1.08;;
43883;SDS011;29544;52.018;5.810;2023-03-23T04:27:23;2.03;;;1.05;;
43883;SDS011;29544;52.018;5.810;2023-03-23T04:29:49;2.10;;;0.93;;
43883;SDS011;29544;52.018;5.810;2023-03-23T04:32:15;1.33;;;1.10;;
43883;SDS011;29544;52.018;5.810;2023-03-23T04:34:42;2.92;;;1.17;;
43883;SDS011;29544;52.018;5.810;2023-03-23T04:37:09;3.10;;;0.90;;
43883;SDS011;29544;52.018;5.810;2023-03-23T04:39:34;2.78;;;1.10;;
43883;SDS011;29544;52.018;5.810;2023-03-23T04:42:00;2.57;;;1.00;;
43883;SDS011;29544;52.018;5.810;2023-03-23T04:44:26;4.22;;;1.30;;
43883;SDS011;29544;52.018;5.810;2023-03-23T04:46:52;1.63;;;0.90;;
43883;SDS011;29544;52.018;5.810;2023-03-23T04:49:19;2.22;;;1.10;;
43883;SDS011;29544;52.018;5.810;2023-03-23T04:51:47;2.67;;;1.23;;
43883;SDS011;29544;52.018;5.810;2023-03-23T04:54:15;4.03;;;1.45;;
43883;SDS011;29544;52.018;5.810;2023-03-23T04:56:41;1.70;;;0.80;;
43883;SDS011;29544;52.018;5.810;2023-03-23T04:59:06;2.90;;;1.30;;
43883;SDS011;29544;52.018;5.810;2023-03-23T05:01:32;1.73;;;1.07;;
43883;SDS011;29544;52.018;5.810;2023-03-23T05:03:59;3.67;;;1.20;;
43883;SDS011;29544;52.018;5.810;2023-03-23T05:06:25;1.30;;;0.77;;
43883;SDS011;29544;52.018;5.810;2023-03-23T05:08:51;3.90;;;1.43;;
43883;SDS011;29544;52.018;5.810;2023-03-23T05:11:16;2.37;;;1.20;;
43883;SDS011;29544;52.018;5.810;2023-03-23T05:13:42;3.37;;;1.13;;
43883;SDS011;29544;52.018;5.810;2023-03-23T05:16:09;4.38;;;1.20;;
43883;SDS011;29544;52.018;5.810;2023-03-23T05:18:34;3.87;;;0.97;;
43883;SDS011;29544;52.018;5.810;2023-03-23T05:21:00;4.73;;;1.83;;
43883;SDS011;29544;52.018;5.810;2023-03-23T05:23:27;2.22;;;1.15;;
43883;SDS011;29544;52.018;5.810;2023-03-23T05:25:55;4.97;;;1.20;;
43883;SDS011;29544;52.018;5.810;2023-03-23T05:28:25;5.03;;;1.50;;
43883;SDS011;29544;52.018;5.810;2023-03-23T05:30:55;5.68;;;1.45;;
43883;SDS011;29544;52.018;5.810;2023-03-23T05:33:21;6.82;;;1.27;;
43883;SDS011;29544;52.018;5.810;2023-03-23T05:35:47;10.30;;;1.70;;
43883;SDS011;29544;52.018;5.810;2023-03-23T05:38:13;3.97;;;1.17;;
43883;SDS011;29544;52.018;5.810;2023-03-23T05:40:40;4.95;;;1.33;;
43883;SDS011;29544;52.018;5.810;2023-03-23T05:43:06;7.18;;;1.80;;
43883;SDS011;29544;52.018;5.810;2023-03-23T05:45:32;11.55;;;1.60;;
43883;SDS011;29544;52.018;5.810;2023-03-23T05:47:58;6.43;;;1.67;;
43883;SDS011;29544;52.018;5.810;2023-03-23T05:50:24;5.83;;;1.47;;
43883;SDS011;29544;52.018;5.810;2023-03-23T05:52:51;8.27;;;1.67;;
43883;SDS011;29544;52.018;5.810;2023-03-23T05:55:16;7.10;;;1.73;;
43883;SDS011;29544;52.018;5.810;2023-03-23T05:57:42;7.00;;;1.60;;
43883;SDS011;29544;52.018;5.810;2023-03-23T06:00:07;4.63;;;1.37;;
43883;SDS011;29544;52.018;5.810;2023-03-23T06:02:44;6.35;;;1.55;;
43883;SDS011;29544;52.018;5.810;2023-03-23T06:05:14;3.80;;;1.63;;
43883;SDS011;29544;52.018;5.810;2023-03-23T06:07:40;3.92;;;1.70;;
43883;SDS011;29544;52.018;5.810;2023-03-23T06:10:07;3.10;;;1.30;;
43883;SDS011;29544;52.018;5.810;2023-03-23T06:12:33;4.82;;;1.20;;
43883;SDS011;29544;52.018;5.810;2023-03-23T06:15:00;4.75;;;1.27;;
43883;SDS011;29544;52.018;5.810;2023-03-23T06:17:25;5.70;;;1.23;;
43883;SDS011;29544;52.018;5.810;2023-03-23T06:19:51;7.47;;;1.95;;
43883;SDS011;29544;52.018;5.810;2023-03-23T06:22:17;5.60;;;1.17;;
43883;SDS011;29544;52.018;5.810;2023-03-23T06:24:43;3.85;;;1.15;;
43883;SDS011;29544;52.018;5.810;2023-03-23T06:27:09;4.60;;;1.38;;
43883;SDS011;29544;52.018;5.810;2023-03-23T06:29:35;5.78;;;1.13;;
43883;SDS011;29544;52.018;5.810;2023-03-23T06:34:28;7.53;;;1.40;;
43883;SDS011;29544;52.018;5.810;2023-03-23T06:39:20;6.47;;;1.48;;
43883;SDS011;29544;52.018;5.810;2023-03-23T06:44:12;5.05;;;1.40;;
43883;SDS011;29544;52.018;5.810;2023-03-23T06:46:38;4.07;;;1.20;;
43883;SDS011;29544;52.018;5.810;2023-03-23T06:49:06;2.78;;;1.02;;
43883;SDS011;29544;52.018;5.810;2023-03-23T06:51:32;3.95;;;1.30;;
43883;SDS011;29544;52.018;5.810;2023-03-23T06:53:57;2.87;;;1.20;;
43883;SDS011;29544;52.018;5.810;2023-03-23T06:56:23;3.47;;;1.20;;
43883;SDS011;29544;52.018;5.810;2023-03-23T06:58:49;4.88;;;1.10;;
43883;SDS011;29544;52.018;5.810;2023-03-23T07:01:14;5.70;;;1.57;;
43883;SDS011;29544;52.018;5.810;2023-03-23T07:03:40;5.43;;;1.35;;
43883;SDS011;29544;52.018;5.810;2023-03-23T07:06:07;3.35;;;1.20;;
43883;SDS011;29544;52.018;5.810;2023-03-23T07:08:33;4.22;;;1.02;;
43883;SDS011;29544;52.018;5.810;2023-03-23T07:10:58;3.47;;;1.00;;
43883;SDS011;29544;52.018;5.810;2023-03-23T07:13:24;4.80;;;1.40;;
43883;SDS011;29544;52.018;5.810;2023-03-23T07:15:50;3.92;;;1.42;;
43883;SDS011;29544;52.018;5.810;2023-03-23T07:18:16;3.00;;;1.30;;
43883;SDS011;29544;52.018;5.810;2023-03-23T07:20:42;2.45;;;1.08;;
43883;SDS011;29544;52.018;5.810;2023-03-23T07:23:07;4.03;;;1.17;;
43883;SDS011;29544;52.018;5.810;2023-03-23T07:25:34;4.63;;;1.65;;
43883;SDS011;29544;52.018;5.810;2023-03-23T07:28:00;4.88;;;1.50;;
43883;SDS011;29544;52.018;5.810;2023-03-23T07:30:27;5.22;;;1.40;;
43883;SDS011;29544;52.018;5.810;2023-03-23T07:32:54;4.00;;;1.40;;
43883;SDS011;29544;52.018;5.810;2023-03-23T07:35:21;5.05;;;1.70;;
43883;SDS011;29544;52.018;5.810;2023-03-23T07:37:47;5.40;;;1.60;;
43883;SDS011;29544;52.018;5.810;2023-03-23T07:40:14;4.95;;;1.38;;
43883;SDS011;29544;52.018;5.810;2023-03-23T07:42:41;4.45;;;1.25;;
43883;SDS011;29544;52.018;5.810;2023-03-23T07:45:07;5.55;;;1.50;;
43883;SDS011;29544;52.018;5.810;2023-03-23T07:47:34;4.32;;;1.55;;
43883;SDS011;29544;52.018;5.810;2023-03-23T07:50:00;4.47;;;1.27;;
43883;SDS011;29544;52.018;5.810;2023-03-23T07:52:26;2.08;;;0.95;;
43883;SDS011;29544;52.018;5.810;2023-03-23T07:54:51;3.43;;;1.13;;
43883;SDS011;29544;52.018;5.810;2023-03-23T07:57:17;4.80;;;1.10;;
43883;SDS011;29544;52.018;5.810;2023-03-23T07:59:42;5.03;;;1.37;;
43883;SDS011;29544;52.018;5.810;2023-03-23T08:02:08;2.97;;;1.13;;
43883;SDS011;29544;52.018;5.810;2023-03-23T08:04:35;3.53;;;1.08;;
43883;SDS011;29544;52.018;5.810;2023-03-23T08:07:02;3.97;;;1.10;;
43883;SDS011;29544;52.018;5.810;2023-03-23T08:09:29;3.63;;;1.33;;
43883;SDS011;29544;52.018;5.810;2023-03-23T08:11:55;4.82;;;0.90;;
43883;SDS011;29544;52.018;5.810;2023-03-23T08:14:21;10.23;;;1.40;;
43883;SDS011;29544;52.018;5.810;2023-03-23T08:16:47;4.80;;;1.20;;
43883;SDS011;29544;52.018;5.810;2023-03-23T08:19:13;5.33;;;1.33;;
43883;SDS011;29544;52.018;5.810;2023-03-23T08:21:39;6.35;;;1.25;;
43883;SDS011;29544;52.018;5.810;2023-03-23T08:24:05;2.43;;;0.97;;
43883;SDS011;29544;52.018;5.810;2023-03-23T08:26:31;4.23;;;1.33;;
43883;SDS011;29544;52.018;5.810;2023-03-23T08:28:56;6.67;;;1.10;;
43883;SDS011;29544;52.018;5.810;2023-03-23T08:31:22;3.73;;;1.50;;
43883;SDS011;29544;52.018;5.810;2023-03-23T08:33:48;4.97;;;1.45;;
43883;SDS011;29544;52.018;5.810;2023-03-23T08:36:14;4.78;;;1.50;;
43883;SDS011;29544;52.018;5.810;2023-03-23T08:38:39;4.53;;;2.27;;
43883;SDS011;29544;52.018;5.810;2023-03-23T08:41:05;3.47;;;1.47;;
43883;SDS011;29544;52.018;5.810;2023-03-23T08:43:32;4.55;;;1.25;;
43883;SDS011;29544;52.018;5.810;2023-03-23T08:45:59;4.35;;;1.27;;
43883;SDS011;29544;52.018;5.810;2023-03-23T08:48:25;4.88;;;1.33;;
43883;SDS011;29544;52.018;5.810;2023-03-23T08:50:50;2.60;;;1.07;;
43883;SDS011;29544;52.018;5.810;2023-03-23T08:53:17;3.28;;;1.13;;
43883;SDS011;29544;52.018;5.810;2023-03-23T08:55:45;3.78;;;1.00;;
43883;SDS011;29544;52.018;5.810;2023-03-23T08:58:11;3.95;;;1.20;;
43883;SDS011;29544;52.018;5.810;2023-03-23T09:00:37;1.83;;;0.80;;
43883;SDS011;29544;52.018;5.810;2023-03-23T09:03:02;3.97;;;0.93;;
43883;SDS011;29544;52.018;5.810;2023-03-23T09:07:55;2.75;;;1.08;;
43883;SDS011;29544;52.018;5.810;2023-03-23T09:10:24;4.45;;;1.23;;
43883;SDS011;29544;52.018;5.810;2023-03-23T09:12:51;3.63;;;0.80;;
43883;SDS011;29544;52.018;5.810;2023-03-23T09:15:17;3.22;;;0.70;;
43883;SDS011;29544;52.018;5.810;2023-03-23T09:17:44;3.58;;;1.35;;
43883;SDS011;29544;52.018;5.810;2023-03-23T09:20:12;3.10;;;1.10;;
43883;SDS011;29544;52.018;5.810;2023-03-23T09:22:40;3.97;;;1.33;;
43883;SDS011;29544;52.018;5.810;2023-03-23T09:25:10;2.95;;;1.10;;
43883;SDS011;29544;52.018;5.810;2023-03-23T09:27:38;4.05;;;1.30;;
43883;SDS011;29544;52.018;5.810;2023-03-23T09:30:05;3.80;;;1.30;;
43883;SDS011;29544;52.018;5.810;2023-03-23T09:32:33;1.65;;;1.00;;
43883;SDS011;29544;52.018;5.810;2023-03-23T09:35:02;2.83;;;1.05;;
43883;SDS011;29544;52.018;5.810;2023-03-23T09:37:32;3.67;;;0.90;;
43883;SDS011;29544;52.018;5.810;2023-03-23T09:39:59;3.70;;;1.27;;
43883;SDS011;29544;52.018;5.810;2023-03-23T09:49:54;2.38;;;1.00;;
43883;SDS011;29544;52.018;5.810;2023-03-23T09:52:28;3.22;;;1.00;;
43883;SDS011;29544;52.018;5.810;2023-03-23T09:55:07;2.25;;;1.20;;
43883;SDS011;29544;52.018;5.810;2023-03-23T09:58:26;2.40;;;0.90;;
43883;SDS011;29544;52.018;5.810;2023-03-23T10:00:32;3.17;;;0.93;;
43883;SDS011;29544;52.018;5.810;2023-03-23T10:05:47;3.33;;;1.10;;
43883;SDS011;29544;52.018;5.810;2023-03-23T10:08:18;5.78;;;1.42;;
43883;SDS011;29544;52.018;5.810;2023-03-23T10:16:24;4.10;;;0.95;;
43883;SDS011;29544;52.018;5.810;2023-03-23T10:21:41;5.88;;;1.20;;
43883;SDS011;29544;52.018;5.810;2023-03-23T10:24:16;2.38;;;0.85;;
43883;SDS011;29544;52.018;5.810;2023-03-23T10:26:55;2.53;;;1.05;;
43883;SDS011;29544;52.018;5.810;2023-03-23T10:29:32;2.05;;;0.98;;
43883;SDS011;29544;52.018;5.810;2023-03-23T10:32:12;2.95;;;1.10;;
43883;SDS011;29544;52.018;5.810;2023-03-23T10:34:46;3.83;;;1.00;;
43883;SDS011;29544;52.018;5.810;2023-03-23T10:37:22;6.32;;;1.10;;
43883;SDS011;29544;52.018;5.810;2023-03-23T10:39:55;3.13;;;1.10;;
43883;SDS011;29544;52.018;5.810;2023-03-23T10:42:24;6.35;;;1.77;;
43883;SDS011;29544;52.018;5.810;2023-03-23T10:44:52;4.78;;;2.00;;
43883;SDS011;29544;52.018;5.810;2023-03-23T10:47:19;4.55;;;1.20;;
43883;SDS011;29544;52.018;5.810;2023-03-23T10:49:55;3.95;;;1.25;;
43883;SDS011;29544;52.018;5.810;2023-03-23T10:52:28;4.00;;;1.10;;
43883;SDS011;29544;52.018;5.810;2023-03-23T10:57:32;3.92;;;1.00;;
43883;SDS011;29544;52.018;5.810;2023-03-23T11:00:07;3.42;;;1.10;;
43883;SDS011;29544;52.018;5.810;2023-03-23T11:02:42;4.03;;;1.15;;
43883;SDS011;29544;52.018;5.810;2023-03-23T11:08:03;3.45;;;1.08;;
43883;SDS011;29544;52.018;5.810;2023-03-23T11:10:39;2.80;;;0.90;;
43883;SDS011;29544;52.018;5.810;2023-03-23T11:13:17;3.25;;;1.33;;
43883;SDS011;29544;52.018;5.810;2023-03-23T11:15:45;2.97;;;1.13;;
43883;SDS011;29544;52.018;5.810;2023-03-23T11:18:12;3.58;;;0.93;;
43883;SDS011;29544;52.018;5.810;2023-03-23T11:20:44;3.45;;;1.10;;
43883;SDS011;29544;52.018;5.810;2023-03-23T11:23:20;3.25;;;1.20;;
43883;SDS011;29544;52.018;5.810;2023-03-23T11:28:43;3.05;;;0.98;;
43883;SDS011;29544;52.018;5.810;2023-03-23T11:31:16;3.40;;;0.98;;
43883;SDS011;29544;52.018;5.810;2023-03-23T11:33:57;2.10;;;1.10;;
43883;SDS011;29544;52.018;5.810;2023-03-23T11:36:29;3.03;;;1.13;;
43883;SDS011;29544;52.018;5.810;2023-03-23T11:39:00;2.65;;;1.40;;
43883;SDS011;29544;52.018;5.810;2023-03-23T11:41:30;5.55;;;1.27;;
43883;SDS011;29544;52.018;5.810;2023-03-23T11:44:03;2.63;;;0.93;;
43883;SDS011;29544;52.018;5.810;2023-03-23T11:46:35;4.03;;;1.33;;
43883;SDS011;29544;52.018;5.810;2023-03-23T11:49:09;3.05;;;1.10;;
43883;SDS011;29544;52.018;5.810;2023-03-23T11:51:51;3.30;;;1.00;;
43883;SDS011;29544;52.018;5.810;2023-03-23T11:54:32;3.33;;;1.10;;
43883;SDS011;29544;52.018;5.810;2023-03-23T11:57:00;4.50;;;1.45;;
43883;SDS011;29544;52.018;5.810;2023-03-23T11:59:29;3.23;;;1.00;;
43883;SDS011;29544;52.018;5.810;2023-03-23T12:05:25;3.45;;;1.38;;
43883;SDS011;29544;52.018;5.810;2023-03-23T12:08:00;2.72;;;1.33;;
43883;SDS011;29544;52.018;5.810;2023-03-23T12:21:52;2.97;;;1.17;;
43883;SDS011;29544;52.018;5.810;2023-03-23T12:24:46;2.33;;;1.05;;
43883;SDS011;29544;52.018;5.810;2023-03-23T12:27:27;3.63;;;1.15;;
43883;SDS011;29544;52.018;5.810;2023-03-23T12:35:48;2.05;;;1.02;;
43883;SDS011;29544;52.018;5.810;2023-03-23T12:41:37;3.60;;;1.20;;
43883;SDS011;29544;52.018;5.810;2023-03-23T12:44:22;2.85;;;1.13;;
43883;SDS011;29544;52.018;5.810;2023-03-23T12:50:18;5.10;;;1.67;;
43883;SDS011;29544;52.018;5.810;2023-03-23T12:53:03;3.80;;;1.25;;
43883;SDS011;29544;52.018;5.810;2023-03-23T12:55:34;2.58;;;1.15;;
43883;SDS011;29544;52.018;5.810;2023-03-23T12:58:10;3.42;;;1.52;;
43883;SDS011;29544;52.018;5.810;2023-03-23T13:03:31;5.22;;;1.30;;
43883;SDS011;29544;52.018;5.810;2023-03-23T13:06:08;4.03;;;1.40;;
43883;SDS011;29544;52.018;5.810;2023-03-23T13:11:53;4.28;;;1.35;;
43883;SDS011;29544;52.018;5.810;2023-03-23T13:23:22;3.30;;;1.23;;
43883;SDS011;29544;52.018;5.810;2023-03-23T13:26:10;3.42;;;1.08;;
43883;SDS011;29544;52.018;5.810;2023-03-23T13:31:23;4.70;;;1.55;;
43883;SDS011;29544;52.018;5.810;2023-03-23T13:33:58;3.42;;;1.50;;
43883;SDS011;29544;52.018;5.810;2023-03-23T13:36:43;2.70;;;1.00;;
43883;SDS011;29544;52.018;5.810;2023-03-23T13:39:21;5.25;;;1.65;;
43883;SDS011;29544;52.018;5.810;2023-03-23T13:42:18;2.67;;;1.17;;
43883;SDS011;29544;52.018;5.810;2023-03-23T13:50:05;4.03;;;1.55;;
43883;SDS011;29544;52.018;5.810;2023-03-23T13:52:54;4.32;;;1.38;;
43883;SDS011;29544;52.018;5.810;2023-03-23T13:57:57;6.45;;;1.20;;
43883;SDS011;29544;52.018;5.810;2023-03-23T14:08:24;3.78;;;1.15;;
43883;SDS011;29544;52.018;5.810;2023-03-23T14:11:02;5.22;;;0.93;;
43883;SDS011;29544;52.018;5.810;2023-03-23T14:14:05;7.88;;;1.20;;
43883;SDS011;29544;52.018;5.810;2023-03-23T14:16:43;4.00;;;1.35;;
43883;SDS011;29544;52.018;5.810;2023-03-23T14:19:14;4.22;;;1.27;;
43883;SDS011;29544;52.018;5.810;2023-03-23T14:21:54;3.03;;;0.93;;
43883;SDS011;29544;52.018;5.810;2023-03-23T14:24:23;3.05;;;1.13;;
43883;SDS011;29544;52.018;5.810;2023-03-23T14:27:03;1.88;;;0.70;;
43883;SDS011;29544;52.018;5.810;2023-03-23T14:29:35;3.03;;;1.10;;
43883;SDS011;29544;52.018;5.810;2023-03-23T14:32:01;2.97;;;1.00;;
43883;SDS011;29544;52.018;5.810;2023-03-23T14:34:28;2.10;;;0.63;;
43883;SDS011;29544;52.018;5.810;2023-03-23T14:36:56;2.78;;;0.95;;
43883;SDS011;29544;52.018;5.810;2023-03-23T14:39:32;5.75;;;1.58;;
43883;SDS011;29544;52.018;5.810;2023-03-23T14:42:04;4.75;;;1.38;;
43883;SDS011;29544;52.018;5.810;2023-03-23T14:44:35;3.22;;;0.85;;
43883;SDS011;29544;52.018;5.810;2023-03-23T14:47:06;4.53;;;1.10;;
43883;SDS011;29544;52.018;5.810;2023-03-23T14:49:38;2.90;;;1.05;;
43883;SDS011;29544;52.018;5.810;2023-03-23T14:52:16;4.18;;;0.90;;
43883;SDS011;29544;52.018;5.810;2023-03-23T14:54:43;3.25;;;1.25;;
43883;SDS011;29544;52.018;5.810;2023-03-23T14:57:14;3.95;;;1.33;;
43883;SDS011;29544;52.018;5.810;2023-03-23T14:59:44;3.80;;;0.90;;
43883;SDS011;29544;52.018;5.810;2023-03-23T15:02:16;2.80;;;1.00;;
43883;SDS011;29544;52.018;5.810;2023-03-23T15:04:48;1.95;;;0.90;;
43883;SDS011;29544;52.018;5.810;2023-03-23T15:07:18;2.05;;;0.88;;
43883;SDS011;29544;52.018;5.810;2023-03-23T15:09:45;3.55;;;1.02;;
43883;SDS011;29544;52.018;5.810;2023-03-23T15:12:19;9.77;;;1.20;;
43883;SDS011;29544;52.018;5.810;2023-03-23T15:14:49;3.70;;;1.02;;
43883;SDS011;29544;52.018;5.810;2023-03-23T15:17:21;2.90;;;1.00;;
43883;SDS011;29544;52.018;5.810;2023-03-23T15:19:49;2.85;;;0.90;;
43883;SDS011;29544;52.018;5.810;2023-03-23T15:22:22;5.00;;;1.00;;
43883;SDS011;29544;52.018;5.810;2023-03-23T15:24:51;5.45;;;1.00;;
43883;SDS011;29544;52.018;5.810;2023-03-23T15:27:28;6.43;;;1.50;;
43883;SDS011;29544;52.018;5.810;2023-03-23T15:29:59;4.78;;;1.02;;
43883;SDS011;29544;52.018;5.810;2023-03-23T15:32:38;6.55;;;1.20;;
43883;SDS011;29544;52.018;5.810;2023-03-23T15:35:12;2.50;;;1.08;;
43883;SDS011;29544;52.018;5.810;2023-03-23T15:37:45;3.33;;;1.00;;
43883;SDS011;29544;52.018;5.810;2023-03-23T15:40:23;3.30;;;1.02;;
43883;SDS011;29544;52.018;5.810;2023-03-23T15:42:50;4.30;;;1.15;;
43883;SDS011;29544;52.018;5.810;2023-03-23T15:45:50;2.95;;;1.00;;
43883;SDS011;29544;52.018;5.810;2023-03-23T15:48:31;2.45;;;0.93;;
43883;SDS011;29544;52.018;5.810;2023-03-23T15:50:58;3.45;;;0.80;;
43883;SDS011;29544;52.018;5.810;2023-03-23T15:53:28;3.17;;;1.00;;
43883;SDS011;29544;52.018;5.810;2023-03-23T15:55:58;2.55;;;1.30;;
43883;SDS011;29544;52.018;5.810;2023-03-23T15:58:25;4.60;;;1.15;;
43883;SDS011;29544;52.018;5.810;2023-03-23T16:00:52;2.90;;;0.80;;
43883;SDS011;29544;52.018;5.810;2023-03-23T16:03:20;2.00;;;0.85;;
43883;SDS011;29544;52.018;5.810;2023-03-23T16:05:51;3.40;;;1.00;;
43883;SDS011;29544;52.018;5.810;2023-03-23T16:10:43;2.90;;;0.90;;
43883;SDS011;29544;52.018;5.810;2023-03-23T16:13:09;1.80;;;1.10;;
43883;SDS011;29544;52.018;5.810;2023-03-23T16:15:35;25.48;;;5.50;;
43883;SDS011;29544;52.018;5.810;2023-03-23T16:18:01;11.40;;;5.40;;
43883;SDS011;29544;52.018;5.810;2023-03-23T16:20:26;30.23;;;10.27;;
43883;SDS011;29544;52.018;5.810;2023-03-23T16:25:18;29.95;;;10.43;;
43883;SDS011;29544;52.018;5.810;2023-03-23T16:27:44;23.13;;;9.57;;
43883;SDS011;29544;52.018;5.810;2023-03-23T16:30:15;24.80;;;8.10;;
43883;SDS011;29544;52.018;5.810;2023-03-23T16:32:45;18.23;;;7.68;;
43883;SDS011;29544;52.018;5.810;2023-03-23T16:35:11;18.53;;;7.03;;
43883;SDS011;29544;52.018;5.810;2023-03-23T16:37:38;19.10;;;6.55;;
43883;SDS011;29544;52.018;5.810;2023-03-23T16:40:09;23.40;;;6.22;;
43883;SDS011;29544;52.018;5.810;2023-03-23T16:42:36;12.73;;;5.45;;
43883;SDS011;29544;52.018;5.810;2023-03-23T16:45:02;10.77;;;5.07;;
43883;SDS011;29544;52.018;5.810;2023-03-23T16:47:27;15.67;;;5.60;;
43883;SDS011;29544;52.018;5.810;2023-03-23T16:49:53;14.10;;;5.00;;
43883;SDS011;29544;52.018;5.810;2023-03-23T16:52:18;10.27;;;3.77;;
43883;SDS011;29544;52.018;5.810;2023-03-23T16:54:45;16.10;;;5.13;;
43883;SDS011;29544;52.018;5.810;2023-03-23T16:57:10;14.80;;;4.80;;
43883;SDS011;29544;52.018;5.810;2023-03-23T16:59:36;12.70;;;4.67;;
43883;SDS011;29544;52.018;5.810;2023-03-23T17:02:03;14.50;;;4.13;;
43883;SDS011;29544;52.018;5.810;2023-03-23T17:04:29;16.23;;;4.78;;